createdAt,value
2019-01-31T00:00:12.407Z,61.40
2019-01-31T00:01:12.379Z,59.30
2019-01-31T00:02:12.375Z,58.40
2019-01-31T00:03:12.354Z,58.80
2019-01-31T00:04:12.372Z,63.20
2019-01-31T00:05:12.335Z,57.80
2019-01-31T00:06:12.320Z,58.50
2019-01-31T00:07:12.322Z,59.50
2019-01-31T00:08:12.303Z,56.70
2019-01-31T00:09:12.292Z,56.70
2019-01-31T00:10:12.297Z,53.30
2019-01-31T00:11:12.271Z,53.40
2019-01-31T00:12:12.295Z,57.80
2019-01-31T00:13:12.249Z,60.90
2019-01-31T00:14:12.238Z,56.90
2019-01-31T00:15:12.227Z,57.30
2019-01-31T00:16:12.243Z,54.40
2019-01-31T00:17:12.202Z,54.20
2019-01-31T00:18:12.193Z,53.00
2019-01-31T00:19:12.183Z,57.30
2019-01-31T00:20:12.173Z,56.20
2019-01-31T00:21:12.161Z,61.30
2019-01-31T00:22:12.163Z,57.10
2019-01-31T00:23:12.140Z,56.90
2019-01-31T00:24:12.129Z,54.80
2019-01-31T00:25:12.118Z,56.00
2019-01-31T00:26:12.107Z,55.20
2019-01-31T00:27:12.108Z,57.80
2019-01-31T00:28:12.086Z,54.40
2019-01-31T00:29:12.076Z,55.50
2019-01-31T00:30:12.065Z,54.20
2019-01-31T00:31:12.052Z,53.20
2019-01-31T00:32:12.055Z,57.20
2019-01-31T00:33:12.032Z,54.70
2019-01-31T00:34:12.023Z,54.50
2019-01-31T00:35:12.011Z,53.30
2019-01-31T00:36:11.999Z,53.30
2019-01-31T00:37:12.005Z,55.20
2019-01-31T00:38:11.983Z,56.30
2019-01-31T00:39:11.981Z,54.20
2019-01-31T00:40:11.959Z,57.20
2019-01-31T00:41:11.943Z,57.00
2019-01-31T00:42:11.935Z,57.00
2019-01-31T00:43:11.924Z,59.80
2019-01-31T00:44:11.925Z,57.30
2019-01-31T00:45:11.900Z,58.90
2019-01-31T00:46:11.891Z,59.10
2019-01-31T00:47:11.877Z,54.60
2019-01-31T00:48:11.879Z,55.70
2019-01-31T00:49:11.858Z,54.60
2019-01-31T00:50:11.874Z,54.60
2019-01-31T00:51:11.837Z,53.70
2019-01-31T00:52:11.826Z,53.40
2019-01-31T00:53:11.816Z,50.30
2019-01-31T00:54:11.803Z,55.00
2019-01-31T00:55:11.791Z,54.70
2019-01-31T00:56:11.796Z,52.40
2019-01-31T00:57:11.781Z,60.50
2019-01-31T00:58:11.761Z,54.20
2019-01-31T00:59:11.767Z,53.70
2019-01-31T01:00:11.738Z,53.90
2019-01-31T01:01:11.743Z,50.60
2019-01-31T01:02:11.716Z,52.20
2019-01-31T01:03:11.708Z,53.90
2019-01-31T01:04:11.698Z,48.90
2019-01-31T01:05:11.687Z,53.20
2019-01-31T01:06:11.703Z,49.30
2019-01-31T01:07:11.663Z,51.70
2019-01-31T01:08:11.655Z,52.20
2019-01-31T01:09:11.640Z,51.50
2019-01-31T01:10:11.630Z,51.60
2019-01-31T01:11:11.620Z,49.70
2019-01-31T01:18:32.860Z,55.90
2019-01-31T01:19:00.039Z,53.80
2019-01-31T01:24:38.797Z,47.80
2019-01-31T01:25:38.767Z,52.60
2019-01-31T01:26:38.784Z,50.00
2019-01-31T01:27:38.748Z,50.80
2019-01-31T01:28:38.733Z,51.10
2019-01-31T01:29:38.726Z,47.10
2019-01-31T01:30:38.714Z,47.70
2019-01-31T01:31:38.722Z,45.90
2019-01-31T01:32:38.693Z,49.70
2019-01-31T01:33:38.680Z,49.20
2019-01-31T01:34:45.713Z,47.50
2019-01-31T01:35:38.691Z,44.10
2019-01-31T01:36:38.651Z,45.70
2019-01-31T01:37:38.637Z,44.80
2019-01-31T01:38:38.625Z,42.00
2019-01-31T01:39:38.616Z,48.20
2019-01-31T01:40:38.607Z,40.80
2019-01-31T01:41:38.612Z,41.60
2019-01-31T01:42:38.586Z,45.50
2019-01-31T01:43:38.572Z,46.40
2019-01-31T01:44:38.564Z,41.80
2019-01-31T01:45:38.552Z,44.10
2019-01-31T01:46:38.556Z,47.00
2019-01-31T01:47:38.529Z,45.40
2019-01-31T01:48:38.519Z,46.20
2019-01-31T01:49:38.515Z,49.20
2019-01-31T01:50:38.497Z,49.20
2019-01-31T01:51:38.499Z,44.50
2019-01-31T01:52:38.497Z,44.20
2019-01-31T01:53:38.465Z,46.40
2019-01-31T01:54:38.458Z,44.30
2019-01-31T01:55:38.446Z,43.10
2019-01-31T01:56:38.432Z,35.30
2019-01-31T01:57:38.424Z,46.00
2019-01-31T01:58:38.427Z,40.10
2019-01-31T01:59:38.402Z,44.40
2019-01-31T02:00:38.395Z,45.80
2019-01-31T02:01:38.378Z,44.40
2019-01-31T02:02:38.388Z,37.60
2019-01-31T02:03:38.389Z,46.60
2019-01-31T02:04:38.345Z,47.40
2019-01-31T02:05:38.337Z,47.60
2019-01-31T02:06:38.326Z,42.40
2019-01-31T02:07:38.316Z,42.90
2019-01-31T02:08:38.305Z,46.10
2019-01-31T02:09:38.308Z,43.30
2019-01-31T02:10:38.283Z,46.10
2019-01-31T02:11:38.270Z,42.10
2019-01-31T02:12:38.263Z,45.20
2019-01-31T02:13:38.276Z,44.70
2019-01-31T02:14:38.241Z,40.10
2019-01-31T02:15:38.230Z,45.50
2019-01-31T02:16:38.217Z,44.30
2019-01-31T02:17:38.217Z,42.60
2019-01-31T02:18:38.196Z,40.30
2019-01-31T02:19:38.202Z,41.00
2019-01-31T02:20:38.173Z,45.30
2019-01-31T02:21:38.167Z,38.90
2019-01-31T02:22:38.171Z,42.50
2019-01-31T02:23:38.144Z,42.10
2019-01-31T02:24:38.134Z,41.10
2019-01-31T02:25:38.145Z,31.30
2019-01-31T02:26:38.112Z,43.70
2019-01-31T02:27:38.099Z,44.70
2019-01-31T02:28:38.088Z,41.00
2019-01-31T02:29:38.095Z,41.40
2019-01-31T02:30:38.069Z,38.80
2019-01-31T02:31:38.058Z,40.60
2019-01-31T02:32:38.066Z,39.40
2019-01-31T02:33:38.038Z,38.80
2019-01-31T02:34:38.041Z,42.40
2019-01-31T02:35:38.017Z,40.80
2019-01-31T02:36:38.001Z,38.10
2019-01-31T02:37:37.995Z,41.30
2019-01-31T02:38:38.001Z,38.00
2019-01-31T02:39:43.175Z,38.20
2019-01-31T02:40:38.972Z,39.30
2019-01-31T02:41:37.954Z,38.70
2019-01-31T02:42:37.937Z,36.70
2019-01-31T02:43:37.929Z,37.20
2019-01-31T02:44:37.917Z,34.40
2019-01-31T02:45:37.940Z,37.50
2019-01-31T02:46:37.897Z,40.40
2019-01-31T02:47:37.886Z,39.80
2019-01-31T02:48:37.875Z,37.90
2019-01-31T02:49:37.862Z,35.80
2019-01-31T02:50:37.861Z,37.60
2019-01-31T02:51:37.856Z,35.70
2019-01-31T02:52:37.829Z,38.00
2019-01-31T02:53:37.823Z,34.60
2019-01-31T02:54:37.816Z,35.00
2019-01-31T02:55:37.796Z,35.60
2019-01-31T02:56:37.811Z,34.90
2019-01-31T02:57:37.778Z,32.40
2019-01-31T02:58:37.768Z,31.10
2019-01-31T02:59:37.763Z,31.80
2019-01-31T03:00:37.745Z,30.70
2019-01-31T03:01:37.733Z,33.70
2019-01-31T03:02:37.756Z,32.80
2019-01-31T03:03:37.728Z,33.30
2019-01-31T03:04:37.714Z,30.00
2019-01-31T03:05:37.693Z,30.80
2019-01-31T03:06:37.797Z,30.00
2019-01-31T03:07:37.670Z,32.70
2019-01-31T03:08:37.797Z,29.30
2019-01-31T03:09:37.648Z,31.20
2019-01-31T03:10:39.418Z,30.30
2019-01-31T03:11:37.627Z,29.60
2019-01-31T03:12:37.616Z,30.50
2019-01-31T03:13:37.619Z,31.40
2019-01-31T03:14:37.615Z,31.90
2019-01-31T03:15:37.586Z,31.50
2019-01-31T03:16:37.577Z,27.70
2019-01-31T03:17:37.560Z,32.70
2019-01-31T03:18:37.553Z,31.70
2019-01-31T03:19:37.575Z,28.00
2019-01-31T03:20:37.531Z,27.30
2019-01-31T03:21:37.519Z,28.50
2019-01-31T03:22:37.509Z,29.00
2019-01-31T03:23:37.498Z,30.80
2019-01-31T03:24:37.487Z,29.80
2019-01-31T03:25:37.497Z,32.60
2019-01-31T03:26:37.466Z,28.70
2019-01-31T03:27:37.459Z,30.00
2019-01-31T03:28:37.443Z,29.60
2019-01-31T03:29:37.434Z,29.00
2019-01-31T03:30:37.424Z,28.70
2019-01-31T03:31:37.429Z,27.70
2019-01-31T03:32:37.406Z,27.90
2019-01-31T03:33:37.392Z,29.90
2019-01-31T03:34:37.377Z,30.20
2019-01-31T03:35:37.499Z,24.30
2019-01-31T03:36:37.376Z,29.90
2019-01-31T03:37:37.348Z,28.40
2019-01-31T03:38:37.338Z,29.70
2019-01-31T03:39:37.327Z,28.80
2019-01-31T03:40:37.330Z,30.40
2019-01-31T03:41:37.350Z,29.80
2019-01-31T03:42:37.295Z,29.40
2019-01-31T03:43:37.285Z,27.60
2019-01-31T03:44:37.272Z,29.60
2019-01-31T03:45:37.264Z,28.90
2019-01-31T03:46:37.252Z,28.50
2019-01-31T03:47:37.255Z,28.70
2019-01-31T03:48:37.229Z,28.00
2019-01-31T03:49:37.218Z,28.30
2019-01-31T03:50:37.210Z,27.00
2019-01-31T03:51:37.216Z,27.40
2019-01-31T03:52:37.204Z,28.90
2019-01-31T03:53:37.178Z,25.50
2019-01-31T03:54:37.171Z,27.30
2019-01-31T03:55:37.157Z,25.40
2019-01-31T03:56:37.245Z,27.40
2019-01-31T03:57:37.149Z,27.00
2019-01-31T03:58:37.127Z,27.70
2019-01-31T03:59:37.109Z,27.00
2019-01-31T04:00:37.100Z,26.70
2019-01-31T04:01:37.089Z,26.30
2019-01-31T04:02:37.089Z,29.30
2019-01-31T04:03:37.100Z,27.00
2019-01-31T04:04:37.059Z,28.10
2019-01-31T04:05:37.046Z,29.50
2019-01-31T04:06:37.034Z,25.50
2019-01-31T04:07:37.025Z,29.40
2019-01-31T04:08:37.015Z,26.50
2019-01-31T04:09:37.028Z,27.10
2019-01-31T04:10:36.991Z,26.60
2019-01-31T04:11:36.981Z,26.60
2019-01-31T04:12:36.972Z,28.20
2019-01-31T04:13:36.960Z,25.80
2019-01-31T04:14:36.952Z,27.40
2019-01-31T04:15:36.978Z,24.70
2019-01-31T04:16:36.929Z,25.90
2019-01-31T04:17:36.919Z,25.30
2019-01-31T04:18:36.907Z,28.50
2019-01-31T04:19:36.899Z,25.90
2019-01-31T04:20:36.884Z,23.70
2019-01-31T04:21:36.950Z,25.40
2019-01-31T04:22:36.866Z,31.00
2019-01-31T04:23:36.854Z,31.70
2019-01-31T04:24:36.845Z,27.90
2019-01-31T04:25:36.847Z,27.70
2019-01-31T04:26:36.820Z,30.60
2019-01-31T04:27:36.812Z,34.50
2019-01-31T04:28:36.800Z,35.60
2019-01-31T04:29:36.787Z,37.20
2019-01-31T04:30:36.799Z,37.60
2019-01-31T04:31:36.767Z,39.40
2019-01-31T04:32:36.757Z,39.80
2019-01-31T04:33:36.746Z,44.60
2019-01-31T04:34:36.735Z,43.70
2019-01-31T04:35:36.723Z,46.50
2019-01-31T04:36:36.732Z,51.60
2019-01-31T04:37:36.702Z,49.60
2019-01-31T04:38:36.689Z,45.70
2019-01-31T04:39:36.697Z,46.40
2019-01-31T04:40:36.671Z,47.90
2019-01-31T04:41:36.673Z,49.20
2019-01-31T04:42:36.651Z,50.30
2019-01-31T04:43:36.640Z,48.10
2019-01-31T04:44:36.640Z,46.20
2019-01-31T04:45:36.622Z,47.10
2019-01-31T04:46:36.619Z,44.70
2019-01-31T04:47:36.598Z,47.80
2019-01-31T04:48:36.582Z,48.50
2019-01-31T04:49:36.589Z,45.50
2019-01-31T04:50:36.567Z,46.10
2019-01-31T04:51:36.550Z,44.90
2019-01-31T04:52:36.542Z,46.30
2019-01-31T04:53:36.529Z,46.00
2019-01-31T04:54:36.520Z,46.00
2019-01-31T04:55:36.522Z,42.80
2019-01-31T04:56:36.496Z,38.60
2019-01-31T04:57:36.487Z,39.50
2019-01-31T04:58:36.508Z,39.70
2019-01-31T04:59:36.466Z,37.30
2019-01-31T05:00:36.460Z,39.10
2019-01-31T05:01:36.445Z,37.50
2019-01-31T05:02:36.433Z,39.90
2019-01-31T05:03:36.420Z,33.80
2019-01-31T05:04:36.456Z,37.20
2019-01-31T05:05:36.407Z,35.60
2019-01-31T05:06:36.390Z,34.40
2019-01-31T05:07:36.376Z,36.40
2019-01-31T05:08:36.366Z,35.40
2019-01-31T05:09:36.373Z,35.00
2019-01-31T05:10:43.323Z,32.10
2019-01-31T05:11:37.338Z,34.90
2019-01-31T05:12:36.326Z,36.30
2019-01-31T05:13:36.319Z,36.60
2019-01-31T05:14:36.339Z,37.10
2019-01-31T05:15:36.302Z,42.90
2019-01-31T05:16:36.295Z,43.70
2019-01-31T05:17:36.275Z,48.70
2019-01-31T05:18:36.264Z,49.90
2019-01-31T05:19:36.269Z,53.00
2019-01-31T05:20:36.290Z,49.10
2019-01-31T05:21:36.253Z,45.60
2019-01-31T05:22:36.216Z,46.20
2019-01-31T05:23:36.209Z,44.60
2019-01-31T05:24:36.199Z,42.60
2019-01-31T05:25:36.185Z,45.00
2019-01-31T05:26:36.187Z,45.30
2019-01-31T05:27:36.165Z,39.50
2019-01-31T05:28:36.154Z,42.90
2019-01-31T05:29:36.145Z,41.20
2019-01-31T05:30:36.133Z,40.60
2019-01-31T05:31:36.151Z,40.00
2019-01-31T05:32:36.111Z,37.60
2019-01-31T05:33:36.106Z,36.30
2019-01-31T05:34:36.125Z,35.90
2019-01-31T05:35:36.131Z,34.60
2019-01-31T05:36:36.104Z,34.40
2019-01-31T05:37:36.118Z,33.20
2019-01-31T05:38:36.075Z,34.30
2019-01-31T05:39:36.081Z,33.60
2019-01-31T05:40:36.070Z,33.80
2019-01-31T05:41:36.100Z,31.60
2019-01-31T05:42:36.093Z,32.80
2019-01-31T05:43:36.102Z,32.30
2019-01-31T05:44:36.075Z,33.60
2019-01-31T05:45:36.059Z,31.70
2019-01-31T05:46:36.036Z,35.20
2019-01-31T05:47:36.045Z,36.00
2019-01-31T05:48:35.968Z,32.90
2019-01-31T05:49:35.946Z,30.70
2019-01-31T05:50:35.993Z,31.30
2019-01-31T05:51:35.925Z,27.50
2019-01-31T05:52:35.902Z,28.60
2019-01-31T05:53:35.889Z,34.30
2019-01-31T05:54:35.906Z,32.10
2019-01-31T05:55:35.877Z,32.50
2019-01-31T05:56:35.885Z,31.70
2019-01-31T05:57:35.877Z,33.90
2019-01-31T05:58:35.833Z,32.90
2019-01-31T05:59:35.820Z,32.40
2019-01-31T06:00:35.807Z,32.10
2019-01-31T06:01:35.802Z,33.60
2019-01-31T06:02:35.852Z,34.50
2019-01-31T06:03:35.776Z,29.50
2019-01-31T06:04:35.773Z,31.20
2019-01-31T06:05:35.757Z,30.30
2019-01-31T06:06:35.746Z,29.90
2019-01-31T06:07:35.740Z,31.40
2019-01-31T06:08:35.768Z,32.60
2019-01-31T06:09:35.709Z,30.10
2019-01-31T06:10:35.715Z,27.60
2019-01-31T06:11:35.688Z,33.10
2019-01-31T06:12:35.681Z,28.10
2019-01-31T06:13:35.671Z,27.00
2019-01-31T06:14:35.686Z,26.60
2019-01-31T06:15:35.669Z,24.40
2019-01-31T06:16:35.638Z,25.40
2019-01-31T06:17:35.624Z,24.20
2019-01-31T06:18:35.614Z,25.90
2019-01-31T06:19:35.605Z,29.40
2019-01-31T06:20:35.638Z,24.60
2019-01-31T06:21:35.616Z,25.30
2019-01-31T06:22:35.573Z,27.10
2019-01-31T06:23:35.564Z,27.80
2019-01-31T06:24:35.569Z,32.00
2019-01-31T06:25:35.544Z,32.50
2019-01-31T06:26:35.530Z,31.10
2019-01-31T06:27:35.537Z,29.40
2019-01-31T06:28:35.515Z,31.40
2019-01-31T06:29:35.524Z,31.00
2019-01-31T06:30:35.489Z,32.50
2019-01-31T06:31:35.487Z,34.80
2019-01-31T06:32:35.499Z,36.20
2019-01-31T06:33:35.467Z,33.00
2019-01-31T06:34:35.448Z,34.30
2019-01-31T06:35:35.434Z,38.00
2019-01-31T06:36:35.423Z,37.90
2019-01-31T06:37:35.413Z,37.90
2019-01-31T06:38:35.418Z,37.20
2019-01-31T06:39:35.396Z,38.70
2019-01-31T06:40:35.380Z,40.20
2019-01-31T06:41:35.374Z,36.60
2019-01-31T06:42:35.358Z,38.30
2019-01-31T06:43:35.361Z,41.00
2019-01-31T06:44:35.339Z,35.50
2019-01-31T06:45:35.325Z,35.50
2019-01-31T06:46:35.314Z,36.90
2019-01-31T06:47:35.316Z,39.60
2019-01-31T06:48:35.308Z,36.00
2019-01-31T06:49:35.283Z,36.30
2019-01-31T06:50:35.277Z,33.60
2019-01-31T06:51:35.264Z,36.50
2019-01-31T06:52:35.253Z,32.80
2019-01-31T06:53:35.271Z,36.50
2019-01-31T06:54:35.232Z,35.50
2019-01-31T06:55:35.222Z,36.30
2019-01-31T06:56:35.209Z,41.80
2019-01-31T06:57:35.200Z,38.50
2019-01-31T06:58:35.189Z,34.60
2019-01-31T06:59:35.189Z,31.20
2019-01-31T07:00:35.200Z,31.50
2019-01-31T07:01:35.160Z,32.00
2019-01-31T07:02:35.145Z,33.70
2019-01-31T07:03:35.135Z,32.50
2019-01-31T07:04:35.127Z,34.30
2019-01-31T07:05:35.113Z,34.00
2019-01-31T07:06:35.121Z,32.20
2019-01-31T07:07:35.095Z,31.20
2019-01-31T07:08:35.084Z,30.60
2019-01-31T07:09:35.073Z,27.90
2019-01-31T07:10:35.064Z,33.10
2019-01-31T07:11:35.053Z,28.30
2019-01-31T07:12:35.065Z,28.00
2019-01-31T07:13:35.031Z,30.10
2019-01-31T07:14:35.021Z,25.70
2019-01-31T07:15:35.010Z,24.10
2019-01-31T07:16:34.996Z,22.60
2019-01-31T07:17:34.989Z,23.70
2019-01-31T07:18:34.989Z,18.80
2019-01-31T07:19:34.966Z,23.20
2019-01-31T07:20:34.957Z,19.90
2019-01-31T07:21:34.945Z,20.90
2019-01-31T07:22:34.936Z,20.80
2019-01-31T07:23:34.937Z,19.10
2019-01-31T07:24:34.919Z,19.10
2019-01-31T07:25:34.998Z,20.10
2019-01-31T07:26:34.891Z,19.80
2019-01-31T07:27:34.882Z,21.40
2019-01-31T07:28:34.899Z,20.30
2019-01-31T07:29:34.858Z,18.10
2019-01-31T07:30:34.850Z,20.50
2019-01-31T07:31:34.840Z,21.00
2019-01-31T07:32:34.830Z,20.40
2019-01-31T07:33:34.819Z,19.40
2019-01-31T07:34:34.824Z,19.50
2019-01-31T07:35:34.797Z,20.20
2019-01-31T07:36:34.792Z,19.20
2019-01-31T07:37:34.776Z,20.80
2019-01-31T07:38:34.781Z,21.90
2019-01-31T07:39:34.756Z,18.70
2019-01-31T07:40:34.808Z,24.80
2019-01-31T07:41:41.573Z,21.90
2019-01-31T07:42:35.719Z,20.20
2019-01-31T07:43:34.712Z,17.10
2019-01-31T07:44:34.722Z,18.10
2019-01-31T07:45:34.691Z,19.50
2019-01-31T07:46:34.679Z,19.40
2019-01-31T07:47:36.753Z,18.00
2019-01-31T07:48:34.660Z,19.60
2019-01-31T07:49:36.654Z,21.70
2019-01-31T07:50:34.647Z,18.50
2019-01-31T07:51:34.629Z,19.30
2019-01-31T07:52:34.613Z,19.70
2019-01-31T07:53:34.621Z,20.80
2019-01-31T07:54:34.593Z,19.70
2019-01-31T07:55:34.584Z,15.00
2019-01-31T07:56:34.571Z,14.50
2019-01-31T07:57:34.562Z,13.70
2019-01-31T07:58:34.552Z,12.90
2019-01-31T07:59:34.568Z,13.00
2019-01-31T08:00:34.527Z,11.90
2019-01-31T08:01:34.517Z,12.30
2019-01-31T08:02:34.509Z,13.00
2019-01-31T08:03:34.498Z,11.50
2019-01-31T08:04:34.486Z,10.90
2019-01-31T08:05:34.489Z,11.80
2019-01-31T08:06:34.462Z,11.60
2019-01-31T08:07:34.452Z,11.50
2019-01-31T08:08:34.498Z,12.60
2019-01-31T08:09:34.456Z,11.80
2019-01-31T08:10:34.465Z,11.50
2019-01-31T08:11:34.439Z,11.10
2019-01-31T08:12:36.946Z,10.10
2019-01-31T08:13:34.487Z,12.10
2019-01-31T08:14:34.406Z,12.00
2019-01-31T08:15:34.422Z,13.00
2019-01-31T08:16:34.429Z,11.50
2019-01-31T08:17:34.368Z,11.50
2019-01-31T08:18:34.341Z,12.00
2019-01-31T08:19:34.324Z,13.40
2019-01-31T08:20:34.312Z,11.60
2019-01-31T08:21:34.322Z,12.80
2019-01-31T08:22:34.305Z,12.60
2019-01-31T08:23:34.308Z,12.30
2019-01-31T08:24:34.279Z,12.90
2019-01-31T08:25:34.292Z,12.50
2019-01-31T08:26:34.278Z,12.20
2019-01-31T08:27:34.243Z,13.00
2019-01-31T08:28:34.270Z,11.90
2019-01-31T08:29:34.230Z,13.10
2019-01-31T08:30:34.206Z,14.10
2019-01-31T08:31:34.196Z,13.00
2019-01-31T08:32:34.239Z,12.50
2019-01-31T08:33:34.192Z,13.50
2019-01-31T08:34:34.190Z,12.80
2019-01-31T08:35:34.150Z,12.10
2019-01-31T08:36:34.143Z,14.80
2019-01-31T08:37:34.176Z,13.30
2019-01-31T08:38:36.698Z,12.10
2019-01-31T08:39:34.113Z,13.20
2019-01-31T08:40:34.097Z,12.90
2019-01-31T08:41:34.105Z,14.40
2019-01-31T08:42:34.076Z,13.80
2019-01-31T08:43:34.076Z,15.00
2019-01-31T08:44:34.071Z,13.50
2019-01-31T08:45:34.081Z,13.00
2019-01-31T08:46:34.040Z,13.80
2019-01-31T08:47:34.020Z,14.20
2019-01-31T08:48:34.130Z,13.20
2019-01-31T08:49:34.000Z,12.90
2019-01-31T08:50:34.020Z,14.20
2019-01-31T08:51:33.980Z,12.90
2019-01-31T08:52:33.972Z,13.30
2019-01-31T08:53:33.958Z,13.40
2019-01-31T08:54:33.962Z,12.70
2019-01-31T08:55:33.936Z,11.70
2019-01-31T08:56:33.930Z,11.40
2019-01-31T08:57:33.915Z,11.90
2019-01-31T08:58:33.905Z,12.00
2019-01-31T08:59:33.893Z,11.80
2019-01-31T09:00:33.896Z,13.00
2019-01-31T09:01:33.873Z,12.30
2019-01-31T09:02:33.866Z,14.20
2019-01-31T09:03:33.851Z,15.50
2019-01-31T09:04:33.881Z,12.20
2019-01-31T09:05:33.834Z,15.60
2019-01-31T09:06:33.820Z,14.40
2019-01-31T09:07:33.804Z,14.90
2019-01-31T09:08:33.796Z,16.50
2019-01-31T09:09:33.785Z,19.10
2019-01-31T09:10:33.787Z,19.60
2019-01-31T09:11:33.768Z,19.20
2019-01-31T09:12:33.753Z,14.70
2019-01-31T09:13:33.740Z,13.90
2019-01-31T09:14:33.731Z,12.90
2019-01-31T09:15:33.848Z,12.90
2019-01-31T09:16:33.708Z,12.80
2019-01-31T09:17:33.713Z,12.00
2019-01-31T09:18:33.692Z,11.90
2019-01-31T09:19:33.678Z,11.60
2019-01-31T09:20:33.666Z,10.40
2019-01-31T09:21:33.690Z,12.80
2019-01-31T09:22:33.645Z,11.30
2019-01-31T09:23:33.636Z,12.60
2019-01-31T09:24:33.624Z,12.80
2019-01-31T09:25:33.610Z,10.30
2019-01-31T09:26:33.617Z,12.50
2019-01-31T09:27:33.589Z,14.20
2019-01-31T09:28:33.584Z,11.00
2019-01-31T09:29:33.572Z,11.60
2019-01-31T09:30:33.557Z,11.90
2019-01-31T09:31:33.548Z,11.50
2019-01-31T09:32:33.553Z,14.40
2019-01-31T09:33:33.526Z,11.80
2019-01-31T09:34:33.519Z,11.10
2019-01-31T09:35:33.511Z,11.30
2019-01-31T09:36:33.515Z,11.50
2019-01-31T09:37:33.505Z,11.50
2019-01-31T09:38:33.473Z,11.30
2019-01-31T09:39:33.462Z,11.70
2019-01-31T09:40:33.449Z,11.80
2019-01-31T09:41:33.439Z,12.10
2019-01-31T09:42:33.437Z,11.20
2019-01-31T09:43:33.461Z,12.80
2019-01-31T09:44:33.412Z,12.30
2019-01-31T09:45:33.396Z,14.70
2019-01-31T09:46:33.388Z,11.80
2019-01-31T09:47:33.376Z,12.70
2019-01-31T09:48:33.374Z,11.40
2019-01-31T09:49:33.352Z,12.00
2019-01-31T09:50:33.343Z,10.50
2019-01-31T09:51:33.339Z,12.30
2019-01-31T09:52:33.325Z,10.00
2019-01-31T09:53:33.328Z,12.60
2019-01-31T09:54:33.327Z,11.20
2019-01-31T09:55:33.310Z,10.70
2019-01-31T09:56:34.831Z,11.70
2019-01-31T09:57:33.267Z,13.00
2019-01-31T09:58:33.260Z,12.50
2019-01-31T09:59:33.275Z,17.30
2019-01-31T10:00:33.235Z,12.30
2019-01-31T10:01:33.224Z,12.70
2019-01-31T10:02:33.212Z,16.80
2019-01-31T10:03:34.869Z,19.10
2019-01-31T10:04:33.190Z,14.00
2019-01-31T10:05:33.209Z,16.50
2019-01-31T10:06:33.171Z,15.30
2019-01-31T10:07:33.187Z,11.70
2019-01-31T10:08:33.145Z,10.70
2019-01-31T10:09:33.141Z,11.00
2019-01-31T10:10:33.197Z,10.40
2019-01-31T10:11:33.147Z,11.20
2019-01-31T10:12:38.280Z,11.00
2019-01-31T10:13:34.105Z,13.50
2019-01-31T10:14:33.113Z,11.70
2019-01-31T10:15:33.078Z,12.50
2019-01-31T10:16:33.078Z,12.40
2019-01-31T10:17:33.140Z,12.40
2019-01-31T10:18:33.133Z,10.00
2019-01-31T10:19:33.032Z,11.30
2019-01-31T10:20:33.031Z,10.30
2019-01-31T10:21:33.010Z,10.60
2019-01-31T10:22:33.164Z,10.00
2019-01-31T10:23:32.983Z,9.70
2019-01-31T10:24:33.169Z,9.90
2019-01-31T10:25:35.623Z,10.60
2019-01-31T10:26:32.982Z,10.30
2019-01-31T10:27:32.973Z,9.30
2019-01-31T10:28:32.949Z,10.30
2019-01-31T10:29:32.926Z,9.60
2019-01-31T10:30:32.912Z,11.50
2019-01-31T10:31:32.921Z,11.40
2019-01-31T10:32:32.889Z,10.90
2019-01-31T10:33:32.899Z,11.30
2019-01-31T10:34:32.881Z,13.00
2019-01-31T10:35:32.862Z,13.90
2019-01-31T10:36:32.846Z,12.50
2019-01-31T10:37:32.833Z,13.10
2019-01-31T10:38:32.842Z,11.80
2019-01-31T10:39:35.493Z,12.50
2019-01-31T10:40:32.820Z,14.00
2019-01-31T10:41:32.806Z,15.80
2019-01-31T10:42:32.782Z,14.20
2019-01-31T10:43:32.792Z,12.70
2019-01-31T10:44:32.759Z,13.50
2019-01-31T10:45:32.752Z,10.50
2019-01-31T10:46:32.757Z,10.70
2019-01-31T10:47:32.728Z,11.00
2019-01-31T10:48:32.722Z,11.70
2019-01-31T10:49:32.752Z,10.50
2019-01-31T10:50:32.701Z,11.80
2019-01-31T10:51:32.711Z,11.80
2019-01-31T10:52:32.683Z,11.90
2019-01-31T10:53:32.677Z,13.30
2019-01-31T10:54:32.664Z,12.50
2019-01-31T10:55:32.666Z,11.80
2019-01-31T10:56:32.628Z,10.00
2019-01-31T10:57:32.619Z,10.50
2019-01-31T10:58:32.609Z,10.30
2019-01-31T10:59:32.615Z,11.70
2019-01-31T11:00:32.592Z,11.90
2019-01-31T11:01:32.576Z,12.00
2019-01-31T11:02:32.568Z,10.50
2019-01-31T11:03:32.570Z,9.10
2019-01-31T11:04:32.542Z,9.70
2019-01-31T11:05:32.532Z,11.10
2019-01-31T11:06:32.522Z,11.10
2019-01-31T11:07:32.517Z,10.70
2019-01-31T11:08:32.517Z,11.10
2019-01-31T11:09:32.492Z,11.40
2019-01-31T11:10:32.480Z,9.90
2019-01-31T11:11:32.486Z,12.00
2019-01-31T11:12:32.456Z,10.50
2019-01-31T11:13:32.458Z,12.30
2019-01-31T11:14:32.437Z,9.80
2019-01-31T11:15:32.543Z,12.50
2019-01-31T11:16:32.412Z,9.90
2019-01-31T11:17:32.401Z,9.90
2019-01-31T11:18:32.431Z,9.30
2019-01-31T11:19:32.381Z,11.40
2019-01-31T11:20:32.377Z,8.70
2019-01-31T11:21:32.361Z,12.20
2019-01-31T11:22:32.353Z,10.80
2019-01-31T11:23:32.339Z,12.40
2019-01-31T11:24:32.345Z,11.10
2019-01-31T11:25:32.315Z,10.60
2019-01-31T11:26:32.318Z,10.60
2019-01-31T11:27:32.292Z,10.50
2019-01-31T11:28:32.298Z,10.50
2019-01-31T11:29:32.271Z,9.40
2019-01-31T11:30:32.264Z,13.90
2019-01-31T11:31:32.250Z,11.70
2019-01-31T11:32:32.238Z,10.00
2019-01-31T11:33:32.262Z,11.30
2019-01-31T11:34:33.203Z,10.10
2019-01-31T11:35:32.209Z,9.50
2019-01-31T11:36:32.195Z,10.10
2019-01-31T11:37:32.183Z,9.70
2019-01-31T11:38:32.176Z,9.20
2019-01-31T11:39:32.182Z,10.80
2019-01-31T11:40:32.153Z,8.80
2019-01-31T11:41:32.144Z,9.70
2019-01-31T11:42:32.135Z,11.70
2019-01-31T11:43:32.120Z,16.60
2019-01-31T11:44:32.124Z,10.30
2019-01-31T11:45:32.096Z,9.60
2019-01-31T11:46:32.089Z,11.40
2019-01-31T11:47:32.091Z,10.00
2019-01-31T11:48:32.066Z,9.70
2019-01-31T11:49:32.057Z,11.30
2019-01-31T11:50:32.042Z,8.80
2019-01-31T11:51:32.033Z,10.10
2019-01-31T11:52:32.042Z,10.80
2019-01-31T11:53:32.013Z,8.90
2019-01-31T11:54:32.003Z,9.40
2019-01-31T11:55:32.007Z,9.30
2019-01-31T11:56:31.984Z,9.20
2019-01-31T11:57:31.970Z,9.90
2019-01-31T11:58:31.974Z,11.10
2019-01-31T11:59:31.950Z,10.50
2019-01-31T12:00:31.936Z,9.10
2019-01-31T12:01:31.926Z,8.10
2019-01-31T12:02:31.944Z,9.50
2019-01-31T12:03:31.906Z,7.70
2019-01-31T12:04:31.895Z,7.80
2019-01-31T12:05:31.882Z,8.40
2019-01-31T12:06:31.871Z,7.60
2019-01-31T12:07:31.861Z,7.50
2019-01-31T12:08:31.864Z,9.30
2019-01-31T12:09:31.842Z,7.80
2019-01-31T12:10:31.827Z,7.80
2019-01-31T12:11:31.814Z,9.10
2019-01-31T12:12:31.807Z,8.40
2019-01-31T12:13:31.826Z,6.90
2019-01-31T12:14:31.785Z,6.60
2019-01-31T12:15:31.774Z,6.20
2019-01-31T12:16:31.764Z,9.60
2019-01-31T12:17:31.904Z,5.80
2019-01-31T12:18:31.739Z,5.80
2019-01-31T12:19:31.743Z,9.90
2019-01-31T12:20:31.717Z,7.40
2019-01-31T12:21:31.722Z,10.40
2019-01-31T12:22:31.701Z,6.40
2019-01-31T12:23:32.357Z,6.30
2019-01-31T12:24:31.684Z,6.80
2019-01-31T12:25:31.663Z,7.00
2019-01-31T12:26:31.655Z,7.80
2019-01-31T12:27:31.645Z,6.30
2019-01-31T12:28:31.631Z,4.70
2019-01-31T12:29:31.651Z,5.00
2019-01-31T12:30:31.613Z,4.70
2019-01-31T12:31:31.627Z,7.90
2019-01-31T12:32:31.688Z,6.30
2019-01-31T12:33:31.623Z,5.00
2019-01-31T12:34:31.600Z,5.60
2019-01-31T12:35:31.631Z,5.40
2019-01-31T12:36:31.656Z,7.10
2019-01-31T12:37:31.576Z,4.30
2019-01-31T12:38:36.832Z,5.60
2019-01-31T12:39:32.539Z,4.30
2019-01-31T12:40:31.516Z,4.60
2019-01-31T12:41:31.493Z,5.20
2019-01-31T12:42:31.565Z,6.10
2019-01-31T12:43:35.276Z,6.70
2019-01-31T12:44:31.464Z,5.00
2019-01-31T12:45:31.452Z,6.10
2019-01-31T12:46:32.820Z,9.00
2019-01-31T12:47:31.462Z,4.80
2019-01-31T12:48:31.419Z,4.90
2019-01-31T12:49:31.404Z,5.60
2019-01-31T12:50:31.393Z,3.80
2019-01-31T12:51:31.390Z,5.20
2019-01-31T12:52:31.407Z,6.50
2019-01-31T12:53:31.396Z,7.10
2019-01-31T12:54:31.353Z,5.10
2019-01-31T12:55:31.335Z,6.30
2019-01-31T12:56:31.330Z,5.00
2019-01-31T12:57:31.317Z,5.60
2019-01-31T12:58:33.815Z,7.80
2019-01-31T12:59:31.313Z,4.20
2019-01-31T13:00:31.283Z,7.40
2019-01-31T13:01:31.272Z,5.50
2019-01-31T13:02:31.265Z,5.80
2019-01-31T13:03:31.251Z,6.40
2019-01-31T13:04:31.255Z,6.90
2019-01-31T13:05:31.229Z,7.10